Meath Environmental Platform

Observations for Trim Patrick St

Time AQI Temp °C Hum % Pres Pa CO μg/m³ H₂S μg/m³ NO μg/m³ NO₂ μg/m³ O₃ μg/m³ SO₂ μg/m³ PM1 μg/m³ PM2.5 μg/m³ PM10 μg/m³
Wednesday 5 August 2026
10:10 2 19.8 58 74,475 0.03 0 3.25 3.52 55.71 1.07 2 5.93 6.53
10:09 2 19.8 57 74,524 0.02 0 3.25 3.45 57.55 1.09 2 5.95 6.55
10:08 2 19.8 57 74,587 0.09 0 3.22 3.68 49.44 0.3 2.86 8.23 9.05
10:05 2 19.9 58 74,811 0.09 0 3.42 6.36 58.53 0.93 2 7.41 8.15
10:04 2 19.8 58 74,901 0.09 0 3.4 3.9 50.77 1.09 2 5.92 6.51
10:03 2 19.8 58 75,031 0.13 0 3.41 5.63 46.38 0.28 2 5.93 6.52
10:01 2 19.8 58 75,406 0.12 0 3.3 4.95 55.11 0.81 2 5.9 6.49
09:59 2 19.7 60 75,978 0.13 0 3.4 4.06 44 0.8 2 7.29 8.02
09:58 2 19.7 59 76,330 0.14 0 3.35 5.11 51.61 0.28 2 5.86 6.45
09:57 2 19.6 59 76,692 0.13 0 3.37 4.93 45.7 0.58 2 6.58 7.24
09:56 2 19.5 59 77,121 0.15 0 3.43 5.1 50.18 0.05 2 5.85 6.43
09:53 2 19.4 60 77,608 0.16 0 3.39 7.01 50 0.09 2 5.76 6.33
09:52 2 19.3 60 78,012 0.17 0 3.36 5.18 44.57 0.1 3.71 8.04 8.85
09:51 2 19.2 60 78,486 0.17 0 3.45 6.11 49.34 0.53 2.86 7.97 8.77
09:50 2 19.2 61 78,930 0.14 0 3.38 6.57 57.29 0.23 2 5.74 6.32
09:49 2 19.1 60 79,392 0.13 0 3.27 5.58 55.84 0.05 2 6.51 7.16
09:48 2 19 60 79,839 0.13 0 3.27 5.27 50.48 0.09 2 6.52 7.18
09:47 2 18.9 61 80,298 0.15 0 3.23 5.59 51.31 0 2 5.74 6.31
09:46 2 18.8 62 80,801 0.14 0 3.15 4.8 49.7 0 2 6.41 7.05
09:45 2 18.7 62 81,317 0.14 0 3.29 5.43 52.86 0 2 6.37 7.01